Hauptseite
METAR-TAF:

METAR-TAF

Flughäfen :

Bohrplattform

P11-b, Niederlande

Breite: 52-21-36N, Länge: 3-20-30E, Höhe: 24 m

Beobachtung

Neuester Wetterbericht von vor 21 Minuten, um 18:55 UTC
Wind 22 kt aus Süd/Südwest
Temperatur 19°C
Luftfeuchtigkeit 94%
Luftdruck 1016 hPa
Sichtweite 10 km oder mehr
Leicht bewölkt in der Höhe von 2900 ft
Durchbrochene Bewölkung in der Höhe von 3500 ft
Geschlossene Wolkendecke in der Höhe von 4100 ft

METAR: EHPG 191855Z AUTO 21022KT 9999 FEW029 BKN035 OVC041 19/18 Q1016 W///H///

Zeit: 21:16 (19:16 UTC)


TAF: fehlend

Wetterbeobachtungen und Prognosen von mehr als 4000 Flughäfen (METAR und TAF Bericht).

Die verfügbaren Stationen werden durch gelbe und rote Markierungen auf der Karte dargestellt.

Führen Sie die Maus auf sie, um den Namen der Station zu sehen.

Darauf klicken, um die Beobachtung von Wetterbeobachtungen und Prognosen zu sehen.

Um die Karte zu ändern : klicken Sie auf den grünen Tasten mit einem schwarzen Kreuz Zum Vergrößern, auf den grünen Button mit einem Gedankenstrich zu verkleinern, oder auf die grünen Pfeile für benachbarte Karten.


METAR-TAF: